Time,TemperatureF,DewpointF,PressureIn,WindDirection,WindDirectionDegrees,WindSpeedMPH,WindSpeedGustMPH,Humidity,HourlyPrecipIn,Conditions,Clouds,dailyrainin,SoftwareType,DateUTC
2013-02-09 00:05:00,39.1,29.0,30.07,NNW,337,0.0,-999.0,66,-99.99,,,0.00,weatherlink.com 1.10,2013-02-09 05:05:00,
2013-02-09 00:20:00,38.6,28.0,30.07,NNW,337,0.0,-999.0,67,-99.99,,,0.00,weatherlink.com 1.10,2013-02-09 05:20:00,
2013-02-09 00:35:00,37.8,29.0,30.08,NNW,337,0.0,-999.0,71,-99.99,,,0.00,weatherlink.com 1.10,2013-02-09 05:35:00,
2013-02-09 00:50:00,37.5,28.0,30.08,NNW,337,0.0,-999.0,69,-99.99,,,0.00,weatherlink.com 1.10,2013-02-09 05:50:00,
2013-02-09 01:05:00,37.2,29.0,30.08,NNW,337,0.0,-999.0,71,-99.99,,,0.00,weatherlink.com 1.10,2013-02-09 06:05:00,
2013-02-09 01:20:00,-999.0,-99.9,30.06,North,-999,-999.0,-999.0,-999,-99.99,,,0.00,weatherlink.com 1.10,2013-02-09 06:20:00,
2013-02-09 01:35:00,36.5,29.0,30.08,NNW,337,0.0,-999.0,75,-99.99,,,0.00,weatherlink.com 1.10,2013-02-09 06:35:00,
2013-02-09 01:50:00,36.2,29.0,30.09,NNW,337,0.0,-999.0,75,-99.99,,,0.00,weatherlink.com 1.10,2013-02-09 06:50:00,
2013-02-09 02:05:00,36.6,29.0,30.10,NNW,337,0.0,-999.0,73,-99.99,,,0.00,weatherlink.com 1.10,2013-02-09 07:05:00,
2013-02-09 02:21:00,36.3,28.0,30.09,NNW,337,0.0,-999.0,73,-99.99,,,0.00,weatherlink.com 1.10,2013-02-09 07:21:00,
2013-02-09 02:36:00,35.6,28.0,30.10,NNW,337,0.0,-999.0,75,-99.99,,,0.00,weatherlink.com 1.10,2013-02-09 07:36:00,
2013-02-09 02:50:00,35.2,28.0,30.11,NNW,337,0.0,-999.0,76,-99.99,,,0.00,weatherlink.com 1.10,2013-02-09 07:50:00,
2013-02-09 03:05:00,35.0,28.0,30.11,NNW,337,0.0,-999.0,76,-99.99,,,0.00,weatherlink.com 1.10,2013-02-09 08:05:00,
2013-02-09 03:21:00,34.6,28.0,30.11,NNW,337,0.0,-999.0,77,-99.99,,,0.00,weatherlink.com 1.10,2013-02-09 08:21:00,
2013-02-09 03:36:00,34.1,28.0,30.11,NNW,337,0.0,-999.0,78,-99.99,,,0.00,weatherlink.com 1.10,2013-02-09 08:36:00,
2013-02-09 03:51:00,34.1,28.0,30.11,NNW,337,0.0,-999.0,78,-99.99,,,0.00,weatherlink.com 1.10,2013-02-09 08:51:00,
2013-02-09 04:06:00,33.8,28.0,30.12,NNW,337,0.0,-999.0,79,-99.99,,,0.00,weatherlink.com 1.10,2013-02-09 09:06:00,
2013-02-09 04:21:00,33.4,27.0,30.12,NNW,337,0.0,-999.0,78,-99.99,,,0.00,weatherlink.com 1.10,2013-02-09 09:21:00,
2013-02-09 04:36:00,33.2,27.0,30.13,NNW,337,1.0,-999.0,78,-99.99,,,0.00,weatherlink.com 1.10,2013-02-09 09:36:00,
2013-02-09 04:51:00,33.2,27.0,30.13,NNW,337,0.0,-999.0,78,-99.99,,,0.00,weatherlink.com 1.10,2013-02-09 09:51:00,
2013-02-09 05:06:00,32.9,27.0,30.14,NNW,337,0.0,-999.0,78,-99.99,,,0.00,weatherlink.com 1.10,2013-02-09 10:06:00,
2013-02-09 05:21:00,32.8,27.0,30.14,NNW,337,0.0,-999.0,79,-99.99,,,0.00,weatherlink.com 1.10,2013-02-09 10:21:00,
2013-02-09 05:36:00,32.7,27.0,30.14,NNW,337,0.0,-999.0,79,-99.99,,,0.00,weatherlink.com 1.10,2013-02-09 10:36:00,
2013-02-09 05:51:00,32.7,27.0,30.14,NNW,337,0.0,-999.0,79,-99.99,,,0.00,weatherlink.com 1.10,2013-02-09 10:51:00,
2013-02-09 06:21:00,32.5,27.0,30.16,NNW,337,0.0,-999.0,80,-99.99,,,0.00,weatherlink.com 1.10,2013-02-09 11:21:00,
2013-02-09 06:36:00,32.5,27.0,30.16,NNW,337,0.0,-999.0,80,-99.99,,,0.00,weatherlink.com 1.10,2013-02-09 11:36:00,
2013-02-09 06:51:00,32.4,27.0,30.16,NNW,337,0.0,-999.0,79,-99.99,,,0.00,weatherlink.com 1.10,2013-02-09 11:51:00,
2013-02-09 07:06:00,32.2,26.0,30.16,NNW,337,0.0,-999.0,79,-99.99,,,0.00,weatherlink.com 1.10,2013-02-09 12:06:00,
2013-02-09 07:21:00,31.9,26.0,30.16,NNW,337,0.0,-999.0,80,-99.99,,,0.00,weatherlink.com 1.10,2013-02-09 12:21:00,
2013-02-09 07:36:00,31.6,26.0,30.17,NNW,337,0.0,-999.0,80,-99.99,,,0.00,weatherlink.com 1.10,2013-02-09 12:36:00,
2013-02-09 07:51:00,31.5,26.0,30.18,NNW,337,0.0,-999.0,80,-99.99,,,0.00,weatherlink.com 1.10,2013-02-09 12:51:00,
2013-02-09 08:06:00,31.3,26.0,30.19,NNW,337,0.0,-999.0,80,-99.99,,,0.00,weatherlink.com 1.10,2013-02-09 13:06:00,
2013-02-09 08:21:00,31.6,26.0,30.19,NNW,337,0.0,-999.0,81,-99.99,,,0.00,weatherlink.com 1.10,2013-02-09 13:21:00,
2013-02-09 08:36:00,32.2,27.0,30.20,NNW,337,0.0,-999.0,81,-99.99,,,0.00,weatherlink.com 1.10,2013-02-09 13:36:00,
2013-02-09 08:51:00,33.4,28.0,30.21,NNW,337,0.0,-999.0,79,-99.99,,,0.00,weatherlink.com 1.10,2013-02-09 13:51:00,
2013-02-09 09:06:00,34.6,28.0,30.21,NNW,337,0.0,-999.0,77,-99.99,,,0.00,weatherlink.com 1.10,2013-02-09 14:06:00,
2013-02-09 09:21:00,36.5,28.0,30.22,NNW,337,0.0,-999.0,70,-99.99,,,0.00,weatherlink.com 1.10,2013-02-09 14:21:00,
2013-02-09 09:36:00,38.6,26.0,30.23,NNW,337,0.0,-999.0,62,-99.99,,,0.00,weatherlink.com 1.10,2013-02-09 14:36:00,
2013-02-09 09:51:00,40.2,27.0,30.23,NNW,337,0.0,-999.0,60,-99.99,,,0.00,weatherlink.com 1.10,2013-02-09 14:51:00,
2013-02-09 10:06:00,41.5,27.0,30.23,NNW,339,0.0,-999.0,57,-99.99,,,0.00,weatherlink.com 1.10,2013-02-09 15:06:00,
2013-02-09 10:21:00,43.3,29.0,30.23,ENE,66,0.0,-999.0,57,-99.99,,,0.00,weatherlink.com 1.10,2013-02-09 15:21:00,
2013-02-09 10:36:00,44.9,27.0,30.24,East,85,2.0,-999.0,50,-99.99,,,0.00,weatherlink.com 1.10,2013-02-09 15:36:00,
2013-02-09 10:51:00,45.8,26.0,30.24,East,80,3.0,-999.0,46,-99.99,,,0.00,weatherlink.com 1.10,2013-02-09 15:51:00,
2013-02-09 11:06:00,46.8,26.0,30.24,ENE,71,4.0,-999.0,45,-99.99,,,0.00,weatherlink.com 1.10,2013-02-09 16:06:00,
2013-02-09 11:21:00,47.7,28.0,30.24,East,82,0.0,-999.0,46,-99.99,,,0.00,weatherlink.com 1.10,2013-02-09 16:21:00,
2013-02-09 11:37:00,49.5,25.0,30.24,ENE,69,0.0,-999.0,39,-99.99,,,0.00,weatherlink.com 1.10,2013-02-09 16:37:00,
2013-02-09 11:51:00,50.5,26.0,30.24,SSW,213,0.0,-999.0,38,-99.99,,,0.00,weatherlink.com 1.10,2013-02-09 16:51:00,
2013-02-09 12:07:00,51.6,27.0,30.23,NE,51,0.0,-999.0,38,-99.99,,,0.00,weatherlink.com 1.10,2013-02-09 17:07:00,
2013-02-09 12:21:00,53.2,25.0,30.22,SSE,168,1.0,-999.0,34,-99.99,,,0.00,weatherlink.com 1.10,2013-02-09 17:21:00,
2013-02-09 12:36:00,54.8,22.0,30.20,NE,44,0.0,-999.0,28,-99.99,,,0.00,weatherlink.com 1.10,2013-02-09 17:36:00,
2013-02-09 12:52:00,55.9,23.0,30.19,South,172,0.0,-999.0,28,-99.99,,,0.00,weatherlink.com 1.10,2013-02-09 17:52:00,
2013-02-09 13:07:00,56.7,24.0,30.19,NNE,32,1.0,-999.0,28,-99.99,,,0.00,weatherlink.com 1.10,2013-02-09 18:07:00,
2013-02-09 13:22:00,57.3,21.0,30.18,East,88,6.0,-999.0,24,-99.99,,,0.00,weatherlink.com 1.10,2013-02-09 18:22:00,
2013-02-09 13:37:00,58.1,21.0,30.19,SSW,195,0.0,-999.0,24,-99.99,,,0.00,weatherlink.com 1.10,2013-02-09 18:37:00,
2013-02-09 13:52:00,58.7,23.0,30.18,ENE,69,3.0,-999.0,25,-99.99,,,0.00,weatherlink.com 1.10,2013-02-09 18:52:00,
2013-02-09 14:07:00,59.3,20.0,30.17,East,85,0.0,-999.0,22,-99.99,,,0.00,weatherlink.com 1.10,2013-02-09 19:07:00,
2013-02-09 14:22:00,59.5,20.0,30.16,ENE,68,1.0,-999.0,22,-99.99,,,0.00,weatherlink.com 1.10,2013-02-09 19:22:00,
2013-02-09 14:37:00,59.8,18.0,30.16,ENE,71,0.0,-999.0,20,-99.99,,,0.00,weatherlink.com 1.10,2013-02-09 19:37:00,
2013-02-09 14:52:00,60.5,19.0,30.16,NE,42,0.0,-999.0,20,-99.99,,,0.00,weatherlink.com 1.10,2013-02-09 19:52:00,
2013-02-09 15:07:00,60.7,14.0,30.15,ENE,62,0.0,-999.0,16,-99.99,,,0.00,weatherlink.com 1.10,2013-02-09 20:07:00,
2013-02-09 15:22:00,60.7,15.0,30.15,East,90,0.0,-999.0,17,-99.99,,,0.00,weatherlink.com 1.10,2013-02-09 20:22:00,
2013-02-09 15:37:00,60.7,18.0,30.15,East,79,3.0,-999.0,19,-99.99,,,0.00,weatherlink.com 1.10,2013-02-09 20:37:00,
2013-02-09 15:52:00,61.2,20.0,30.14,North,8,0.0,-999.0,20,-99.99,,,0.00,weatherlink.com 1.10,2013-02-09 20:52:00,
2013-02-09 16:07:00,60.9,19.0,30.15,NE,49,0.0,-999.0,20,-99.99,,,0.00,weatherlink.com 1.10,2013-02-09 21:07:00,
2013-02-09 16:22:00,60.9,21.0,30.14,SSW,196,2.0,-999.0,21,-99.99,,,0.00,weatherlink.com 1.10,2013-02-09 21:22:00,
2013-02-09 16:37:00,60.7,19.0,30.15,ESE,117,0.0,-999.0,20,-99.99,,,0.00,weatherlink.com 1.10,2013-02-09 21:37:00,
2013-02-09 16:52:00,60.4,19.0,30.15,SW,229,0.0,-999.0,20,-99.99,,,0.00,weatherlink.com 1.10,2013-02-09 21:52:00,
2013-02-09 17:07:00,59.8,21.0,30.16,NE,48,0.0,-999.0,22,-99.99,,,0.00,weatherlink.com 1.10,2013-02-09 22:07:00,
2013-02-09 17:22:00,59.2,20.0,30.16,ESE,106,0.0,-999.0,22,-99.99,,,0.00,weatherlink.com 1.10,2013-02-09 22:22:00,
2013-02-09 17:37:00,58.6,21.0,30.16,ENE,64,0.0,-999.0,23,-99.99,,,0.00,weatherlink.com 1.10,2013-02-09 22:37:00,
2013-02-09 17:52:00,57.8,21.0,30.16,ESE,119,0.0,-999.0,24,-99.99,,,0.00,weatherlink.com 1.10,2013-02-09 22:52:00,
2013-02-09 18:07:00,57.2,21.0,30.16,ESE,119,0.0,-999.0,24,-99.99,,,0.00,weatherlink.com 1.10,2013-02-09 23:07:00,
2013-02-09 18:22:00,56.2,21.0,30.16,ESE,119,0.0,-999.0,25,-99.99,,,0.00,weatherlink.com 1.10,2013-02-09 23:22:00,
2013-02-09 18:37:00,55.0,21.0,30.18,ESE,119,0.0,-999.0,27,-99.99,,,0.00,weatherlink.com 1.10,2013-02-09 23:37:00,
2013-02-09 18:52:00,53.1,26.0,30.18,ESE,119,0.0,-999.0,35,-99.99,,,0.00,weatherlink.com 1.10,2013-02-09 23:52:00,
2013-02-09 19:07:00,51.0,25.0,30.19,ESE,119,0.0,-999.0,36,-99.99,,,0.00,weatherlink.com 1.10,2013-02-10 00:07:00,
2013-02-09 19:22:00,50.2,26.0,30.20,ESE,119,0.0,-999.0,39,-99.99,,,0.00,weatherlink.com 1.10,2013-02-10 00:22:00,
2013-02-09 19:37:00,48.5,23.0,30.20,ESE,119,0.0,-999.0,37,-99.99,,,0.00,weatherlink.com 1.10,2013-02-10 00:37:00,
2013-02-09 19:52:00,46.7,31.0,30.20,ESE,119,0.0,-999.0,55,-99.99,,,0.00,weatherlink.com 1.10,2013-02-10 00:52:00,
2013-02-09 20:07:00,45.5,32.0,30.20,ESE,119,0.0,-999.0,60,-99.99,,,0.00,weatherlink.com 1.10,2013-02-10 01:07:00,
2013-02-09 20:22:00,44.5,29.0,30.21,ESE,119,0.0,-999.0,54,-99.99,,,0.00,weatherlink.com 1.10,2013-02-10 01:22:00,
2013-02-09 20:37:00,44.5,25.0,30.21,East,79,0.0,-999.0,47,-99.99,,,0.00,weatherlink.com 1.10,2013-02-10 01:37:00,
2013-02-09 20:52:00,45.2,25.0,30.21,East,79,0.0,-999.0,45,-99.99,,,0.00,weatherlink.com 1.10,2013-02-10 01:52:00,
2013-02-09 21:07:00,44.2,30.0,30.21,East,79,0.0,-999.0,57,-99.99,,,0.00,weatherlink.com 1.10,2013-02-10 02:07:00,
2013-02-09 21:22:00,42.9,32.0,30.21,East,79,0.0,-999.0,65,-99.99,,,0.00,weatherlink.com 1.10,2013-02-10 02:22:00,
2013-02-09 21:37:00,41.8,31.0,30.21,East,79,0.0,-999.0,66,-99.99,,,0.00,weatherlink.com 1.10,2013-02-10 02:37:00,
2013-02-09 21:52:00,41.1,33.0,30.21,East,79,0.0,-999.0,72,-99.99,,,0.00,weatherlink.com 1.10,2013-02-10 02:52:00,
2013-02-09 22:07:00,40.3,32.0,30.22,East,79,0.0,-999.0,73,-99.99,,,0.00,weatherlink.com 1.10,2013-02-10 03:07:00,
2013-02-09 22:22:00,39.8,32.0,30.22,East,79,0.0,-999.0,74,-99.99,,,0.00,weatherlink.com 1.10,2013-02-10 03:22:00,
2013-02-09 22:37:00,39.3,32.0,30.22,East,79,0.0,-999.0,75,-99.99,,,0.00,weatherlink.com 1.10,2013-02-10 03:37:00,
2013-02-09 22:52:00,39.1,32.0,30.21,East,79,0.0,-999.0,75,-99.99,,,0.00,weatherlink.com 1.10,2013-02-10 03:52:00,
2013-02-09 23:07:00,38.6,32.0,30.21,East,79,0.0,-999.0,76,-99.99,,,0.00,weatherlink.com 1.10,2013-02-10 04:07:00,
2013-02-09 23:22:00,38.3,32.0,30.21,East,79,0.0,-999.0,77,-99.99,,,0.00,weatherlink.com 1.10,2013-02-10 04:22:00,
2013-02-09 23:37:00,37.9,31.0,30.21,East,79,0.0,-999.0,75,-99.99,,,0.00,weatherlink.com 1.10,2013-02-10 04:37:00,
2013-02-09 23:52:00,37.6,31.0,30.21,East,79,0.0,-999.0,77,-99.99,,,0.00,weatherlink.com 1.10,2013-02-10 04:52:00,